Terminal Aerodrome Forecast
Issued by NWS

Home | Current Version | Previous Version | Text Only | Print | Product List | Glossary Off
Versions: 1 2 3 4 5 6 7 8 9 10 11 12 13 14 15 16 17 18 19 20 21 22 23 24 25 26 27 28 29 30

698
FTUS43 KABR 202330 CCA
TAFATY
TAF COR
KATY 202330Z 2100/2124 04010KT 6SM -RA BR SCT008 BKN019 OVC025
      TEMPO 2100/2104 BKN008
     FM210800 32010KT P6SM OVC003
     FM211300 31011G20KT P6SM OVC008
     FM211600 32021G30KT P6SM BKN020
     FM212100 32024G35KT P6SM BKN050=

USA.gov is the U.S. government's official web portal to all federal, state and local government web resources and services.